createdAt,value
2023-03-26T00:02:04.069Z,4.71
2023-03-26T00:04:33.772Z,4.67
2023-03-26T00:07:03.313Z,4.68
2023-03-26T00:09:31.464Z,4.73
2023-03-26T00:11:59.550Z,4.77
2023-03-26T00:14:29.106Z,4.78
2023-03-26T00:16:57.336Z,4.76
2023-03-26T00:19:25.602Z,4.77
2023-03-26T00:21:53.726Z,4.81
2023-03-26T00:24:29.468Z,4.86
2023-03-26T00:26:57.595Z,4.93
2023-03-26T00:29:28.158Z,4.97
2023-03-26T00:31:56.396Z,4.99
2023-03-26T00:34:24.960Z,5.01
2023-03-26T00:36:54.871Z,5.02
2023-03-26T00:39:24.523Z,5.03
2023-03-26T00:41:54.720Z,5.03
2023-03-26T00:44:23.352Z,5.05
2023-03-26T00:46:51.520Z,5.05
2023-03-26T00:49:19.577Z,5.02
2023-03-26T00:51:47.802Z,5.01
2023-03-26T00:54:15.874Z,4.99
2023-03-26T00:56:45.454Z,4.99
2023-03-26T00:59:13.608Z,4.99
2023-03-26T01:01:41.957Z,5.02
2023-03-26T01:04:31.215Z,5.02
2023-03-26T01:07:04.142Z,5.00
2023-03-26T01:09:36.579Z,4.97
2023-03-26T01:12:09.829Z,4.94
2023-03-26T01:14:38.988Z,4.90
2023-03-26T01:17:09.266Z,4.87
2023-03-26T01:19:45.869Z,4.85
2023-03-26T01:22:17.410Z,4.80
2023-03-26T01:24:53.133Z,4.78
2023-03-26T01:27:29.084Z,4.77
2023-03-26T01:30:05.322Z,4.79
2023-03-26T01:32:44.918Z,4.77
2023-03-26T01:35:25.525Z,4.76
2023-03-26T01:38:10.581Z,4.77
2023-03-26T01:40:47.253Z,4.78
2023-03-26T01:43:26.183Z,4.78
2023-03-26T01:45:55.896Z,4.77
2023-03-26T01:48:31.860Z,4.76
2023-03-26T01:51:00.168Z,4.77
2023-03-26T01:53:28.681Z,4.77
2023-03-26T01:56:05.110Z,4.78
2023-03-26T01:58:39.162Z,4.78
2023-03-26T02:01:17.410Z,4.77
2023-03-26T02:03:52.179Z,4.78
2023-03-26T02:06:30.787Z,4.76
2023-03-26T02:09:04.478Z,4.75
2023-03-26T02:11:35.872Z,4.73
2023-03-26T02:14:07.959Z,4.72
2023-03-26T02:16:36.354Z,4.72
2023-03-26T02:19:05.598Z,4.73
2023-03-26T02:21:34.286Z,4.74
2023-03-26T02:24:04.300Z,4.75
2023-03-26T02:26:37.751Z,4.75
2023-03-26T02:29:12.403Z,4.72
2023-03-26T02:31:43.419Z,4.74
2023-03-26T02:34:11.684Z,4.73
2023-03-26T02:36:47.142Z,4.71
2023-03-26T02:39:15.687Z,4.69
2023-03-26T02:41:52.085Z,4.70
2023-03-26T02:44:20.658Z,4.70
2023-03-26T02:47:07.285Z,4.69
2023-03-26T02:49:37.908Z,4.70
2023-03-26T02:52:06.824Z,4.69
2023-03-26T02:54:37.119Z,4.69
2023-03-26T02:57:17.100Z,4.69
2023-03-26T03:00:06.503Z,4.69
2023-03-26T03:02:38.368Z,4.71
2023-03-26T03:05:32.655Z,4.74
2023-03-26T03:08:18.601Z,4.73
2023-03-26T03:11:09.874Z,4.75
2023-03-26T03:13:46.334Z,4.75
2023-03-26T03:16:18.898Z,4.72
2023-03-26T03:18:54.336Z,4.74
2023-03-26T03:21:24.107Z,4.73
2023-03-26T03:23:52.337Z,4.70
2023-03-26T03:26:27.708Z,4.67
2023-03-26T03:28:58.784Z,4.64
2023-03-26T03:31:28.429Z,4.63
2023-03-26T03:34:02.626Z,4.62
2023-03-26T03:36:38.505Z,4.60
2023-03-26T03:39:16.972Z,4.60
2023-03-26T03:41:45.892Z,4.57
2023-03-26T03:44:17.861Z,4.56
2023-03-26T03:46:49.192Z,4.55
2023-03-26T03:49:17.593Z,4.56
2023-03-26T03:51:45.811Z,4.57
2023-03-26T03:54:23.039Z,4.56
2023-03-26T03:57:09.117Z,4.56
2023-03-26T03:59:52.454Z,4.58
2023-03-26T04:02:26.412Z,4.60
2023-03-26T04:04:59.342Z,4.62
2023-03-26T04:07:31.180Z,4.61
2023-03-26T04:10:18.101Z,4.57
2023-03-26T04:13:04.562Z,4.52
2023-03-26T04:15:54.982Z,4.38
2023-03-26T04:18:24.496Z,4.33
2023-03-26T04:20:52.576Z,4.33
2023-03-26T04:23:26.771Z,4.36
2023-03-26T04:26:05.177Z,4.33
2023-03-26T04:28:56.642Z,4.26
2023-03-26T04:31:30.525Z,4.20
2023-03-26T04:34:06.797Z,4.21
2023-03-26T04:36:42.400Z,4.15
2023-03-26T04:39:13.329Z,4.13
2023-03-26T04:42:00.462Z,4.12
2023-03-26T04:44:35.693Z,4.12
2023-03-26T04:47:10.593Z,4.12
2023-03-26T04:49:45.757Z,4.09
2023-03-26T04:52:16.218Z,4.07
2023-03-26T04:55:03.175Z,4.04
2023-03-26T04:57:38.089Z,4.06
2023-03-26T05:00:16.634Z,4.06
2023-03-26T05:02:51.030Z,4.03
2023-03-26T05:05:19.857Z,4.01
2023-03-26T05:07:48.039Z,3.99
2023-03-26T05:10:20.379Z,3.98
2023-03-26T05:12:59.518Z,3.94
2023-03-26T05:15:31.336Z,3.93
2023-03-26T05:18:00.802Z,3.95
2023-03-26T05:20:36.052Z,3.95
2023-03-26T05:23:07.476Z,3.85
2023-03-26T05:25:39.246Z,3.80
2023-03-26T05:28:14.925Z,3.77
2023-03-26T05:30:53.337Z,3.78
2023-03-26T05:33:24.669Z,3.80
2023-03-26T05:36:05.125Z,3.82
2023-03-26T05:38:35.005Z,3.81
2023-03-26T05:41:07.715Z,3.83
2023-03-26T05:43:38.372Z,3.87
2023-03-26T05:46:11.728Z,3.89
2023-03-26T05:48:41.458Z,3.92
2023-03-26T05:51:09.937Z,3.91
2023-03-26T05:53:42.619Z,3.92
2023-03-26T05:56:33.203Z,3.92
2023-03-26T05:59:19.962Z,3.89
2023-03-26T06:01:48.134Z,3.82
2023-03-26T06:04:18.973Z,3.81
2023-03-26T06:07:02.203Z,3.82
2023-03-26T06:09:30.640Z,3.84
2023-03-26T06:11:58.793Z,3.81
2023-03-26T06:14:27.516Z,3.77
2023-03-26T06:17:14.363Z,3.76
2023-03-26T06:20:02.183Z,3.76
2023-03-26T06:22:37.442Z,3.79
2023-03-26T06:25:23.876Z,3.84
2023-03-26T06:27:58.899Z,3.87
2023-03-26T06:30:47.136Z,3.81
2023-03-26T06:33:31.246Z,3.72
2023-03-26T06:36:03.134Z,3.68
2023-03-26T06:38:31.866Z,3.69
2023-03-26T06:41:04.417Z,3.70
2023-03-26T06:43:51.178Z,3.69
2023-03-26T06:46:38.367Z,3.72
2023-03-26T06:49:29.066Z,3.79
2023-03-26T06:52:15.984Z,3.82
2023-03-26T06:55:02.275Z,3.91
2023-03-26T06:57:50.523Z,3.95
2023-03-26T07:00:42.371Z,3.99
2023-03-26T07:03:29.572Z,4.03
2023-03-26T07:06:16.341Z,4.08
2023-03-26T07:09:05.081Z,4.09
2023-03-26T07:11:51.920Z,4.10
2023-03-26T07:14:38.838Z,4.12
2023-03-26T07:17:29.327Z,4.15
2023-03-26T07:20:12.531Z,4.18
2023-03-26T07:22:41.861Z,4.19
2023-03-26T07:25:30.292Z,4.20
2023-03-26T07:28:25.740Z,4.21
2023-03-26T07:31:27.283Z,4.24
2023-03-26T07:34:32.482Z,4.28
2023-03-26T07:37:22.915Z,4.34
2023-03-26T07:40:28.229Z,4.35
2023-03-26T07:43:33.260Z,4.31
2023-03-26T07:46:30.827Z,4.35
2023-03-26T07:49:20.386Z,4.46
2023-03-26T07:52:09.968Z,4.49
2023-03-26T07:54:58.410Z,4.54
2023-03-26T07:57:56.025Z,4.51
2023-03-26T08:00:41.668Z,4.53
2023-03-26T08:03:28.822Z,4.53
2023-03-26T08:06:06.451Z,4.50
2023-03-26T08:08:54.846Z,4.44
2023-03-26T08:11:48.847Z,4.46
2023-03-26T08:14:25.656Z,4.51
2023-03-26T08:17:02.776Z,4.49
2023-03-26T08:19:54.180Z,4.49
2023-03-26T08:22:28.098Z,4.47
2023-03-26T08:25:17.770Z,4.43
2023-03-26T08:27:54.025Z,4.47
2023-03-26T08:30:24.457Z,4.51
2023-03-26T08:32:57.276Z,4.47
2023-03-26T08:35:26.515Z,4.46
2023-03-26T08:37:55.086Z,4.41
2023-03-26T08:40:45.526Z,4.43
2023-03-26T08:43:40.287Z,4.45
2023-03-26T08:46:45.623Z,4.47
2023-03-26T08:49:39.586Z,4.51
2023-03-26T08:52:35.566Z,4.58
2023-03-26T08:55:32.284Z,4.61
2023-03-26T08:58:37.682Z,4.61
2023-03-26T09:01:22.770Z,4.64
2023-03-26T09:04:14.524Z,4.62
2023-03-26T09:07:09.918Z,4.52
2023-03-26T09:10:09.518Z,4.50
2023-03-26T09:13:09.995Z,4.47
2023-03-26T09:16:15.301Z,4.43
2023-03-26T09:19:04.289Z,4.44
2023-03-26T09:21:58.688Z,4.41
2023-03-26T09:24:58.627Z,4.40
2023-03-26T09:27:38.040Z,4.42
2023-03-26T09:30:31.452Z,4.50
2023-03-26T09:33:19.020Z,4.56
2023-03-26T09:35:54.186Z,4.63
2023-03-26T09:38:37.385Z,4.70
2023-03-26T09:41:12.170Z,4.65
2023-03-26T09:44:12.641Z,4.53
2023-03-26T09:46:57.170Z,4.44
2023-03-26T09:49:42.823Z,4.36
2023-03-26T09:52:23.758Z,4.33
2023-03-26T09:55:15.514Z,4.35
2023-03-26T09:58:02.291Z,4.34
2023-03-26T10:00:40.971Z,4.35
2023-03-26T10:03:22.257Z,4.38
2023-03-26T10:06:09.782Z,4.35
2023-03-26T10:08:50.503Z,4.32
2023-03-26T10:11:28.241Z,4.24
2023-03-26T10:14:06.034Z,4.25
2023-03-26T10:16:47.365Z,4.24
2023-03-26T10:19:31.730Z,4.28
2023-03-26T10:22:11.462Z,4.25
2023-03-26T10:25:02.677Z,4.34
2023-03-26T10:27:45.087Z,4.37
2023-03-26T10:30:29.258Z,4.31
2023-03-26T10:33:07.837Z,4.39
2023-03-26T10:35:48.292Z,4.40
2023-03-26T10:38:29.679Z,4.31
2023-03-26T10:41:05.114Z,4.23
2023-03-26T10:44:13.006Z,4.31
2023-03-26T10:46:56.399Z,4.30
2023-03-26T10:49:42.134Z,4.27
2023-03-26T10:52:16.101Z,4.27
2023-03-26T10:54:54.453Z,4.27
2023-03-26T10:57:30.738Z,4.27
2023-03-26T11:00:03.042Z,4.26
2023-03-26T11:02:43.112Z,4.31
2023-03-26T11:05:27.638Z,4.25
2023-03-26T11:08:03.243Z,4.16
2023-03-26T11:10:47.929Z,4.20
2023-03-26T11:13:26.794Z,4.24
2023-03-26T11:16:02.248Z,4.24
2023-03-26T11:18:39.444Z,4.29
2023-03-26T11:21:18.654Z,4.30
2023-03-26T11:24:06.429Z,4.19
2023-03-26T11:26:46.313Z,4.15
2023-03-26T11:29:32.701Z,4.15
2023-03-26T11:32:07.361Z,4.10
2023-03-26T11:34:39.865Z,4.07
2023-03-26T11:37:17.608Z,4.10
2023-03-26T11:39:53.475Z,4.16
2023-03-26T11:42:25.584Z,4.19
2023-03-26T11:44:58.226Z,4.21
2023-03-26T11:47:32.973Z,4.25
2023-03-26T11:50:04.782Z,4.31
2023-03-26T11:52:33.014Z,4.41
2023-03-26T11:55:01.093Z,4.40
2023-03-26T11:57:33.383Z,4.42
2023-03-26T12:00:08.362Z,4.48
2023-03-26T12:02:42.076Z,4.51
2023-03-26T12:05:19.444Z,4.48
2023-03-26T12:07:53.043Z,4.48
2023-03-26T12:10:25.670Z,4.56
2023-03-26T12:13:15.447Z,4.63
2023-03-26T12:15:44.821Z,4.75
2023-03-26T12:18:32.100Z,4.78
2023-03-26T12:21:08.812Z,4.89
2023-03-26T12:23:45.588Z,5.02
2023-03-26T12:26:36.983Z,5.11
2023-03-26T12:29:09.380Z,5.27
2023-03-26T12:31:51.117Z,5.26
2023-03-26T12:37:27.854Z,5.26
2023-03-26T12:40:16.014Z,5.34
2023-03-26T12:44:54.027Z,5.62
2023-03-26T12:45:44.316Z,6.14
2023-03-26T12:48:15.653Z,6.23
2023-03-26T12:50:59.266Z,6.09
2023-03-26T12:53:40.190Z,5.79
2023-03-26T12:56:19.923Z,5.58
2023-03-26T12:59:08.530Z,5.42
2023-03-26T13:01:50.442Z,5.18
2023-03-26T13:04:52.049Z,5.17
2023-03-26T13:07:44.586Z,5.30
2023-03-26T13:10:40.983Z,5.55
2023-03-26T13:13:25.279Z,5.80
2023-03-26T13:15:54.886Z,5.94
2023-03-26T13:18:36.457Z,5.94
2023-03-26T13:21:11.384Z,5.87
2023-03-26T13:23:51.431Z,5.79
2023-03-26T13:26:37.089Z,5.63
2023-03-26T13:29:14.503Z,5.62
2023-03-26T13:31:50.181Z,5.64
2023-03-26T13:34:27.719Z,5.61
2023-03-26T13:37:10.993Z,5.57
2023-03-26T13:39:50.234Z,5.55
2023-03-26T13:42:36.751Z,5.52
2023-03-26T13:45:15.979Z,5.49
2023-03-26T13:47:48.096Z,5.47
2023-03-26T13:50:23.763Z,5.43
2023-03-26T13:52:56.052Z,5.44
2023-03-26T13:55:29.433Z,5.45
2023-03-26T13:58:05.071Z,5.47
2023-03-26T14:00:54.643Z,5.53
2023-03-26T14:03:30.785Z,5.67
2023-03-26T14:06:05.699Z,5.84
2023-03-26T14:08:40.640Z,6.04
2023-03-26T14:11:13.868Z,6.16
2023-03-26T14:13:50.092Z,6.14
2023-03-26T14:16:22.624Z,6.15
2023-03-26T14:18:59.345Z,6.12
2023-03-26T14:21:49.876Z,5.93
2023-03-26T14:24:44.490Z,5.74
2023-03-26T14:27:24.896Z,5.64
2023-03-26T14:30:21.797Z,5.56
2023-03-26T14:33:04.133Z,5.60
2023-03-26T14:35:37.866Z,5.56
2023-03-26T14:38:24.341Z,5.54
2023-03-26T14:40:59.200Z,5.52
2023-03-26T14:43:51.132Z,5.54
2023-03-26T14:46:35.630Z,5.67
2023-03-26T14:49:29.102Z,5.75
2023-03-26T14:52:03.656Z,5.85
2023-03-26T14:54:38.153Z,5.89
2023-03-26T14:57:39.942Z,5.83
2023-03-26T15:00:31.096Z,5.85
2023-03-26T15:03:38.703Z,5.89
2023-03-26T15:06:39.909Z,5.78
2023-03-26T15:09:46.550Z,5.75
2023-03-26T15:12:30.340Z,5.73
2023-03-26T15:15:27.400Z,5.67
2023-03-26T15:18:27.458Z,5.54
2023-03-26T15:21:27.284Z,5.51
2023-03-26T15:24:21.311Z,5.56
2023-03-26T15:27:24.480Z,5.59
2023-03-26T15:30:16.216Z,5.64
2023-03-26T15:33:17.080Z,5.74
2023-03-26T15:36:17.404Z,5.88
2023-03-26T15:39:27.741Z,5.94
2023-03-26T15:42:03.944Z,5.90
2023-03-26T15:44:53.077Z,5.81
2023-03-26T15:47:43.840Z,5.75
2023-03-26T15:50:27.294Z,5.70
2023-03-26T15:53:04.775Z,5.71
2023-03-26T15:55:40.345Z,5.79
2023-03-26T15:58:17.048Z,5.89
2023-03-26T16:00:56.545Z,5.95
2023-03-26T16:03:34.281Z,6.02
2023-03-26T16:06:20.266Z,6.06
2023-03-26T16:08:56.056Z,6.01
2023-03-26T16:11:46.484Z,5.87
2023-03-26T16:14:23.184Z,5.74
2023-03-26T16:16:55.636Z,5.66
2023-03-26T16:20:03.492Z,5.60
2023-03-26T16:22:57.555Z,5.56
2023-03-26T16:25:30.520Z,5.56
2023-03-26T16:28:27.564Z,5.63
2023-03-26T16:31:37.229Z,5.64
2023-03-26T16:34:40.387Z,5.57
2023-03-26T16:37:39.550Z,5.52
2023-03-26T16:40:45.067Z,5.44
2023-03-26T16:43:29.729Z,5.42
2023-03-26T16:46:06.874Z,5.39
2023-03-26T16:48:42.401Z,5.40
2023-03-26T16:51:18.685Z,5.40
2023-03-26T16:53:58.116Z,5.40
2023-03-26T16:56:34.777Z,5.36
2023-03-26T16:59:10.196Z,5.32
2023-03-26T17:01:48.288Z,5.28
2023-03-26T17:04:21.564Z,5.27
2023-03-26T17:07:01.723Z,5.22
2023-03-26T17:09:37.857Z,5.16
2023-03-26T17:12:15.924Z,5.10
2023-03-26T17:14:56.594Z,5.06
2023-03-26T17:17:36.876Z,4.99
2023-03-26T17:20:17.650Z,4.91
2023-03-26T17:22:48.874Z,4.82
2023-03-26T17:25:36.246Z,4.72
2023-03-26T17:28:33.924Z,4.66
2023-03-26T17:31:13.987Z,4.63
2023-03-26T17:33:43.191Z,4.61
2023-03-26T17:36:31.685Z,4.60
2023-03-26T17:39:07.365Z,4.58
2023-03-26T17:41:56.502Z,4.56
2023-03-26T17:44:45.046Z,4.53
2023-03-26T17:47:33.589Z,4.56
2023-03-26T17:50:06.432Z,4.56
2023-03-26T17:52:48.087Z,4.54
2023-03-26T17:55:20.980Z,4.54
2023-03-26T17:57:52.315Z,4.55
2023-03-26T18:00:23.876Z,4.54
2023-03-26T18:02:58.510Z,4.50
2023-03-26T18:05:30.441Z,4.48
2023-03-26T18:08:29.379Z,4.44
2023-03-26T18:11:18.108Z,4.39
2023-03-26T18:14:05.180Z,4.41
2023-03-26T18:16:38.937Z,4.38
2023-03-26T18:19:18.320Z,4.33
2023-03-26T18:21:50.448Z,4.28
2023-03-26T18:24:24.449Z,4.28
2023-03-26T18:26:58.446Z,4.25
2023-03-26T18:29:29.267Z,4.19
2023-03-26T18:32:00.552Z,4.17
2023-03-26T18:34:31.937Z,4.13
2023-03-26T18:37:14.792Z,4.10
2023-03-26T18:39:43.617Z,4.07
2023-03-26T18:42:24.288Z,4.03
2023-03-26T18:45:00.023Z,4.02
2023-03-26T18:47:31.499Z,4.04
2023-03-26T18:50:03.637Z,4.04
2023-03-26T18:52:33.602Z,4.00
2023-03-26T18:55:04.477Z,3.97
2023-03-26T18:57:32.714Z,3.94
2023-03-26T19:00:20.063Z,3.90
2023-03-26T19:02:51.935Z,3.85
2023-03-26T19:05:22.306Z,3.85
2023-03-26T19:07:52.386Z,3.80
2023-03-26T19:10:21.321Z,3.79
2023-03-26T19:12:57.055Z,3.77
2023-03-26T19:15:26.805Z,3.76
2023-03-26T19:18:03.469Z,3.75
2023-03-26T19:20:41.385Z,3.75
2023-03-26T19:23:15.086Z,3.77
2023-03-26T19:25:46.175Z,3.76
2023-03-26T19:28:20.899Z,3.73
2023-03-26T19:30:55.866Z,3.73
2023-03-26T19:33:26.248Z,3.71
2023-03-26T19:36:04.864Z,3.73
2023-03-26T19:38:43.135Z,3.74
2023-03-26T19:41:20.782Z,3.75
2023-03-26T19:43:51.068Z,3.74
2023-03-26T19:46:20.802Z,3.73
2023-03-26T19:48:50.030Z,3.69
2023-03-26T19:51:23.254Z,3.67
2023-03-26T19:53:55.109Z,3.60
2023-03-26T19:56:23.671Z,3.58
2023-03-26T19:58:52.538Z,3.56
2023-03-26T20:01:23.723Z,3.53
2023-03-26T20:03:53.456Z,3.53
2023-03-26T20:06:34.009Z,3.56
2023-03-26T20:09:11.202Z,3.58
2023-03-26T20:11:40.852Z,3.58
2023-03-26T20:14:14.520Z,3.58
2023-03-26T20:16:45.275Z,3.56
2023-03-26T20:19:15.044Z,3.50
2023-03-26T20:21:45.876Z,3.46
2023-03-26T20:24:15.783Z,3.44
2023-03-26T20:26:44.225Z,3.41
2023-03-26T20:29:12.957Z,3.43
2023-03-26T20:31:42.555Z,3.41
2023-03-26T20:34:17.329Z,3.43
2023-03-26T20:36:47.829Z,3.43
2023-03-26T20:39:16.229Z,3.41
2023-03-26T20:41:48.367Z,3.41
2023-03-26T20:44:18.176Z,3.41
2023-03-26T20:46:48.587Z,3.38
2023-03-26T20:49:17.864Z,3.34
2023-03-26T20:51:48.884Z,3.34
2023-03-26T20:54:19.390Z,3.33
2023-03-26T20:56:49.120Z,3.36
2023-03-26T20:59:22.580Z,3.35
2023-03-26T21:01:52.065Z,3.32
2023-03-26T21:04:21.351Z,3.31
2023-03-26T21:06:53.227Z,3.28
2023-03-26T21:09:25.300Z,3.26
2023-03-26T21:12:00.533Z,3.25
2023-03-26T21:14:33.587Z,3.23
2023-03-26T21:17:02.466Z,3.19
2023-03-26T21:19:31.232Z,3.19
2023-03-26T21:22:11.314Z,3.15
2023-03-26T21:24:49.415Z,3.15
2023-03-26T21:27:26.741Z,3.14
2023-03-26T21:29:55.653Z,3.13
2023-03-26T21:32:24.315Z,3.15
2023-03-26T21:34:58.617Z,3.16
2023-03-26T21:37:29.001Z,3.15
2023-03-26T21:39:57.643Z,3.12
2023-03-26T21:42:27.118Z,3.11
2023-03-26T21:44:56.098Z,3.09
2023-03-26T21:47:24.551Z,3.08
2023-03-26T21:49:54.766Z,3.05
2023-03-26T21:52:23.955Z,3.02
2023-03-26T21:54:54.376Z,3.01
2023-03-26T21:57:37.783Z,3.04
2023-03-26T22:00:14.677Z,3.02
2023-03-26T22:02:56.304Z,3.00
2023-03-26T22:05:31.162Z,2.99
2023-03-26T22:08:02.977Z,2.99
2023-03-26T22:10:33.090Z,2.95
2023-03-26T22:13:01.279Z,2.94
2023-03-26T22:15:31.262Z,2.92
2023-03-26T22:18:03.203Z,2.90
2023-03-26T22:20:31.827Z,2.91
2023-03-26T22:23:00.985Z,2.89
2023-03-26T22:25:29.159Z,2.89
2023-03-26T22:27:58.610Z,2.88
2023-03-26T22:30:27.311Z,2.85
2023-03-26T22:32:55.732Z,2.86
2023-03-26T22:35:24.248Z,2.87
2023-03-26T22:37:52.637Z,2.88
2023-03-26T22:40:29.511Z,2.86
2023-03-26T22:42:58.869Z,2.85
2023-03-26T22:45:28.010Z,2.84
2023-03-26T22:48:03.938Z,2.83
2023-03-26T22:50:32.915Z,2.84
2023-03-26T22:53:01.074Z,2.85
2023-03-26T22:55:29.752Z,2.86
2023-03-26T22:57:59.486Z,2.85
2023-03-26T23:00:27.943Z,2.81
2023-03-26T23:03:00.124Z,2.81
2023-03-26T23:05:29.452Z,2.79
2023-03-26T23:07:58.313Z,2.76
2023-03-26T23:10:26.527Z,2.74
2023-03-26T23:12:54.826Z,2.73
2023-03-26T23:15:25.906Z,2.72
2023-03-26T23:17:55.128Z,2.71
2023-03-26T23:20:23.469Z,2.70
2023-03-26T23:22:52.512Z,2.73
2023-03-26T23:25:21.281Z,2.72
2023-03-26T23:27:50.584Z,2.71
2023-03-26T23:30:19.412Z,2.71
2023-03-26T23:32:48.981Z,2.68
2023-03-26T23:35:17.263Z,2.65
2023-03-26T23:37:45.403Z,2.65
2023-03-26T23:40:14.350Z,2.63
2023-03-26T23:42:42.669Z,2.63
2023-03-26T23:45:12.368Z,2.65
2023-03-26T23:47:42.643Z,2.64
2023-03-26T23:50:13.106Z,2.64
2023-03-26T23:52:41.428Z,2.64
2023-03-26T23:55:10.024Z,2.61
2023-03-26T23:57:38.198Z,2.58
